sensor_id;sensor_type;location;lat;lon;timestamp;P1;durP1;ratioP1;P2;durP2;ratioP2
73239;SDS011;61452;40.054;4.110;2023-02-19T00:03:49;2.40;;;1.42;;
73239;SDS011;61452;40.054;4.110;2023-02-19T00:08:53;1.50;;;1.20;;
73239;SDS011;61452;40.054;4.110;2023-02-19T00:13:57;1.73;;;1.15;;
73239;SDS011;61452;40.054;4.110;2023-02-19T00:19:01;1.80;;;1.30;;
73239;SDS011;61452;40.054;4.110;2023-02-19T00:24:06;1.88;;;1.30;;
73239;SDS011;61452;40.054;4.110;2023-02-19T00:29:12;1.45;;;1.20;;
73239;SDS011;61452;40.054;4.110;2023-02-19T00:34:16;1.70;;;1.30;;
73239;SDS011;61452;40.054;4.110;2023-02-19T00:39:18;1.63;;;1.30;;
73239;SDS011;61452;40.054;4.110;2023-02-19T00:44:22;1.70;;;1.48;;
73239;SDS011;61452;40.054;4.110;2023-02-19T00:49:24;1.50;;;1.33;;
73239;SDS011;61452;40.054;4.110;2023-02-19T00:54:26;2.05;;;1.35;;
73239;SDS011;61452;40.054;4.110;2023-02-19T00:59:28;1.63;;;1.13;;
73239;SDS011;61452;40.054;4.110;2023-02-19T01:04:31;1.45;;;1.15;;
73239;SDS011;61452;40.054;4.110;2023-02-19T01:09:33;1.75;;;1.30;;
73239;SDS011;61452;40.054;4.110;2023-02-19T01:14:35;1.67;;;1.27;;
73239;SDS011;61452;40.054;4.110;2023-02-19T01:19:37;1.50;;;1.17;;
73239;SDS011;61452;40.054;4.110;2023-02-19T01:24:40;1.55;;;1.20;;
73239;SDS011;61452;40.054;4.110;2023-02-19T01:29:42;1.83;;;1.33;;
73239;SDS011;61452;40.054;4.110;2023-02-19T01:34:44;1.80;;;1.50;;
73239;SDS011;61452;40.054;4.110;2023-02-19T01:39:46;1.58;;;1.40;;
73239;SDS011;61452;40.054;4.110;2023-02-19T01:50:23;1.92;;;1.40;;
73239;SDS011;61452;40.054;4.110;2023-02-19T01:55:28;1.42;;;1.23;;
73239;SDS011;61452;40.054;4.110;2023-02-19T02:00:31;1.95;;;1.38;;
73239;SDS011;61452;40.054;4.110;2023-02-19T02:05:37;2.50;;;1.30;;
73239;SDS011;61452;40.054;4.110;2023-02-19T02:10:45;1.70;;;1.40;;
73239;SDS011;61452;40.054;4.110;2023-02-19T02:21:35;2.03;;;1.35;;
73239;SDS011;61452;40.054;4.110;2023-02-19T02:27:04;1.80;;;1.30;;
73239;SDS011;61452;40.054;4.110;2023-02-19T02:32:19;2.10;;;1.70;;
73239;SDS011;61452;40.054;4.110;2023-02-19T02:37:26;2.03;;;1.40;;
73239;SDS011;61452;40.054;4.110;2023-02-19T02:42:32;2.38;;;1.30;;
73239;SDS011;61452;40.054;4.110;2023-02-19T02:47:50;2.45;;;1.40;;
73239;SDS011;61452;40.054;4.110;2023-02-19T02:53:00;1.83;;;1.27;;
73239;SDS011;61452;40.054;4.110;2023-02-19T02:58:27;1.80;;;1.17;;
73239;SDS011;61452;40.054;4.110;2023-02-19T03:03:34;3.38;;;1.70;;
73239;SDS011;61452;40.054;4.110;2023-02-19T03:08:40;1.92;;;1.50;;
73239;SDS011;61452;40.054;4.110;2023-02-19T03:14:00;2.08;;;1.60;;
73239;SDS011;61452;40.054;4.110;2023-02-19T03:19:28;1.92;;;1.60;;
73239;SDS011;61452;40.054;4.110;2023-02-19T03:24:49;1.70;;;1.23;;
73239;SDS011;61452;40.054;4.110;2023-02-19T03:30:19;1.85;;;1.50;;
73239;SDS011;61452;40.054;4.110;2023-02-19T03:35:30;1.88;;;1.30;;
73239;SDS011;61452;40.054;4.110;2023-02-19T03:57:00;2.05;;;1.50;;
73239;SDS011;61452;40.054;4.110;2023-02-19T04:07:12;2.00;;;1.50;;
73239;SDS011;61452;40.054;4.110;2023-02-19T04:12:15;1.92;;;1.60;;
73239;SDS011;61452;40.054;4.110;2023-02-19T04:17:25;1.77;;;1.50;;
73239;SDS011;61452;40.054;4.110;2023-02-19T04:22:33;1.42;;;1.13;;
73239;SDS011;61452;40.054;4.110;2023-02-19T04:27:37;1.80;;;1.60;;
73239;SDS011;61452;40.054;4.110;2023-02-19T04:32:40;1.45;;;1.25;;
73239;SDS011;61452;40.054;4.110;2023-02-19T04:37:42;1.65;;;1.20;;
73239;SDS011;61452;40.054;4.110;2023-02-19T04:42:44;1.80;;;1.40;;
73239;SDS011;61452;40.054;4.110;2023-02-19T04:47:47;2.50;;;1.58;;
73239;SDS011;61452;40.054;4.110;2023-02-19T04:52:49;2.08;;;1.30;;
73239;SDS011;61452;40.054;4.110;2023-02-19T04:57:51;1.77;;;1.30;;
73239;SDS011;61452;40.054;4.110;2023-02-19T05:02:53;1.60;;;1.30;;
73239;SDS011;61452;40.054;4.110;2023-02-19T05:07:55;1.67;;;1.35;;
73239;SDS011;61452;40.054;4.110;2023-02-19T05:12:57;2.03;;;1.45;;
73239;SDS011;61452;40.054;4.110;2023-02-19T05:17:59;1.88;;;1.40;;
73239;SDS011;61452;40.054;4.110;2023-02-19T05:23:01;1.60;;;1.20;;
73239;SDS011;61452;40.054;4.110;2023-02-19T05:28:04;1.85;;;1.33;;
73239;SDS011;61452;40.054;4.110;2023-02-19T05:33:19;1.60;;;1.40;;
73239;SDS011;61452;40.054;4.110;2023-02-19T05:38:23;1.90;;;1.50;;
73239;SDS011;61452;40.054;4.110;2023-02-19T05:43:26;1.92;;;1.40;;
73239;SDS011;61452;40.054;4.110;2023-02-19T05:48:28;2.08;;;1.27;;
73239;SDS011;61452;40.054;4.110;2023-02-19T05:53:30;1.52;;;1.30;;
73239;SDS011;61452;40.054;4.110;2023-02-19T05:58:33;1.80;;;1.30;;
73239;SDS011;61452;40.054;4.110;2023-02-19T06:03:35;1.70;;;1.33;;
73239;SDS011;61452;40.054;4.110;2023-02-19T06:08:37;3.42;;;1.40;;
73239;SDS011;61452;40.054;4.110;2023-02-19T06:13:39;2.92;;;1.50;;
73239;SDS011;61452;40.054;4.110;2023-02-19T06:18:41;1.67;;;1.23;;
73239;SDS011;61452;40.054;4.110;2023-02-19T06:23:44;1.52;;;1.30;;
73239;SDS011;61452;40.054;4.110;2023-02-19T06:28:48;2.53;;;1.40;;
73239;SDS011;61452;40.054;4.110;2023-02-19T06:33:51;1.65;;;1.35;;
73239;SDS011;61452;40.054;4.110;2023-02-19T06:38:58;1.75;;;1.38;;
73239;SDS011;61452;40.054;4.110;2023-02-19T06:44:01;1.88;;;1.42;;
73239;SDS011;61452;40.054;4.110;2023-02-19T06:49:03;1.70;;;1.40;;
73239;SDS011;61452;40.054;4.110;2023-02-19T06:54:06;1.50;;;1.08;;
73239;SDS011;61452;40.054;4.110;2023-02-19T06:59:14;1.73;;;1.48;;
73239;SDS011;61452;40.054;4.110;2023-02-19T07:04:19;1.80;;;1.15;;
73239;SDS011;61452;40.054;4.110;2023-02-19T07:09:21;1.52;;;1.33;;
73239;SDS011;61452;40.054;4.110;2023-02-19T07:19:27;2.20;;;1.50;;
73239;SDS011;61452;40.054;4.110;2023-02-19T07:24:29;1.60;;;1.40;;
73239;SDS011;61452;40.054;4.110;2023-02-19T07:29:32;1.67;;;1.20;;
73239;SDS011;61452;40.054;4.110;2023-02-19T07:34:34;1.80;;;1.50;;
73239;SDS011;61452;40.054;4.110;2023-02-19T07:39:36;1.65;;;1.50;;
73239;SDS011;61452;40.054;4.110;2023-02-19T07:44:38;1.45;;;1.20;;
73239;SDS011;61452;40.054;4.110;2023-02-19T07:49:40;1.67;;;1.40;;
73239;SDS011;61452;40.054;4.110;2023-02-19T07:54:42;1.50;;;1.20;;
73239;SDS011;61452;40.054;4.110;2023-02-19T07:59:44;1.70;;;1.23;;
73239;SDS011;61452;40.054;4.110;2023-02-19T08:04:46;1.70;;;1.20;;
73239;SDS011;61452;40.054;4.110;2023-02-19T08:09:49;1.75;;;1.30;;
73239;SDS011;61452;40.054;4.110;2023-02-19T08:15:11;1.50;;;1.25;;
73239;SDS011;61452;40.054;4.110;2023-02-19T08:20:13;1.45;;;1.20;;
73239;SDS011;61452;40.054;4.110;2023-02-19T08:25:15;2.10;;;1.67;;
73239;SDS011;61452;40.054;4.110;2023-02-19T08:30:17;1.60;;;1.25;;
73239;SDS011;61452;40.054;4.110;2023-02-19T08:35:20;1.60;;;1.10;;
73239;SDS011;61452;40.054;4.110;2023-02-19T08:40:22;1.67;;;1.20;;
73239;SDS011;61452;40.054;4.110;2023-02-19T08:45:26;1.83;;;1.52;;
73239;SDS011;61452;40.054;4.110;2023-02-19T08:50:28;1.50;;;1.38;;
73239;SDS011;61452;40.054;4.110;2023-02-19T08:55:30;2.47;;;1.40;;
73239;SDS011;61452;40.054;4.110;2023-02-19T09:00:33;2.00;;;1.30;;
73239;SDS011;61452;40.054;4.110;2023-02-19T09:05:35;1.83;;;1.50;;
73239;SDS011;61452;40.054;4.110;2023-02-19T09:10:38;1.30;;;1.20;;
73239;SDS011;61452;40.054;4.110;2023-02-19T09:15:40;2.00;;;1.25;;
73239;SDS011;61452;40.054;4.110;2023-02-19T09:20:42;2.13;;;1.60;;
73239;SDS011;61452;40.054;4.110;2023-02-19T09:25:45;1.83;;;1.33;;
73239;SDS011;61452;40.054;4.110;2023-02-19T09:30:47;1.35;;;1.13;;
73239;SDS011;61452;40.054;4.110;2023-02-19T09:35:49;1.92;;;1.27;;
73239;SDS011;61452;40.054;4.110;2023-02-19T09:40:51;1.40;;;1.27;;
73239;SDS011;61452;40.054;4.110;2023-02-19T09:45:58;1.70;;;1.17;;
73239;SDS011;61452;40.054;4.110;2023-02-19T09:51:04;1.67;;;1.38;;
73239;SDS011;61452;40.054;4.110;2023-02-19T09:56:11;2.33;;;1.25;;
73239;SDS011;61452;40.054;4.110;2023-02-19T10:01:13;1.33;;;1.15;;
73239;SDS011;61452;40.054;4.110;2023-02-19T10:06:23;1.13;;;1.02;;
73239;SDS011;61452;40.054;4.110;2023-02-19T10:11:27;1.40;;;1.30;;
73239;SDS011;61452;40.054;4.110;2023-02-19T10:16:29;1.20;;;0.93;;
73239;SDS011;61452;40.054;4.110;2023-02-19T10:21:32;1.52;;;1.20;;
73239;SDS011;61452;40.054;4.110;2023-02-19T10:26:34;1.60;;;1.13;;
73239;SDS011;61452;40.054;4.110;2023-02-19T10:31:37;1.33;;;1.10;;
73239;SDS011;61452;40.054;4.110;2023-02-19T10:36:40;1.83;;;1.48;;
73239;SDS011;61452;40.054;4.110;2023-02-19T10:41:43;1.55;;;1.17;;
73239;SDS011;61452;40.054;4.110;2023-02-19T10:46:46;1.70;;;1.52;;
73239;SDS011;61452;40.054;4.110;2023-02-19T10:51:51;1.50;;;1.30;;
73239;SDS011;61452;40.054;4.110;2023-02-19T10:57:41;1.92;;;1.40;;
73239;SDS011;61452;40.054;4.110;2023-02-19T11:02:42;1.73;;;1.40;;
73239;SDS011;61452;40.054;4.110;2023-02-19T11:12:56;1.73;;;1.20;;
73239;SDS011;61452;40.054;4.110;2023-02-19T11:18:05;1.30;;;1.00;;
73239;SDS011;61452;40.054;4.110;2023-02-19T11:23:13;1.33;;;1.08;;
73239;SDS011;61452;40.054;4.110;2023-02-19T11:28:23;1.33;;;1.10;;
73239;SDS011;61452;40.054;4.110;2023-02-19T11:38:55;2.00;;;1.30;;
73239;SDS011;61452;40.054;4.110;2023-02-19T11:44:44;1.77;;;1.30;;
73239;SDS011;61452;40.054;4.110;2023-02-19T11:54:58;1.77;;;1.40;;
73239;SDS011;61452;40.054;4.110;2023-02-19T12:05:28;1.50;;;1.30;;
73239;SDS011;61452;40.054;4.110;2023-02-19T12:10:51;1.63;;;1.20;;
73239;SDS011;61452;40.054;4.110;2023-02-19T12:16:10;2.08;;;1.52;;
73239;SDS011;61452;40.054;4.110;2023-02-19T12:32:15;1.92;;;1.55;;
73239;SDS011;61452;40.054;4.110;2023-02-19T12:48:20;1.75;;;1.50;;
73239;SDS011;61452;40.054;4.110;2023-02-19T12:58:59;3.30;;;2.17;;
73239;SDS011;61452;40.054;4.110;2023-02-19T13:15:13;2.35;;;1.88;;
73239;SDS011;61452;40.054;4.110;2023-02-19T13:26:10;4.32;;;2.53;;
73239;SDS011;61452;40.054;4.110;2023-02-19T13:31:15;2.55;;;2.33;;
73239;SDS011;61452;40.054;4.110;2023-02-19T13:36:40;3.55;;;2.42;;
73239;SDS011;61452;40.054;4.110;2023-02-19T13:41:49;2.90;;;2.20;;
73239;SDS011;61452;40.054;4.110;2023-02-19T13:46:54;3.22;;;2.53;;
73239;SDS011;61452;40.054;4.110;2023-02-19T13:52:00;3.90;;;2.95;;
73239;SDS011;61452;40.054;4.110;2023-02-19T14:02:31;4.03;;;3.00;;
73239;SDS011;61452;40.054;4.110;2023-02-19T14:07:37;3.63;;;2.65;;
73239;SDS011;61452;40.054;4.110;2023-02-19T14:12:50;4.30;;;3.17;;
73239;SDS011;61452;40.054;4.110;2023-02-19T14:17:52;3.65;;;2.63;;
73239;SDS011;61452;40.054;4.110;2023-02-19T14:22:59;3.42;;;2.92;;
73239;SDS011;61452;40.054;4.110;2023-02-19T14:33:13;3.80;;;2.72;;
73239;SDS011;61452;40.054;4.110;2023-02-19T14:38:19;4.15;;;3.22;;
73239;SDS011;61452;40.054;4.110;2023-02-19T14:43:25;4.75;;;3.03;;
73239;SDS011;61452;40.054;4.110;2023-02-19T14:48:32;4.93;;;3.00;;
73239;SDS011;61452;40.054;4.110;2023-02-19T14:53:40;4.15;;;3.03;;
73239;SDS011;61452;40.054;4.110;2023-02-19T14:58:45;3.65;;;2.85;;
73239;SDS011;61452;40.054;4.110;2023-02-19T15:04:05;4.53;;;2.65;;
73239;SDS011;61452;40.054;4.110;2023-02-19T15:09:23;3.95;;;2.83;;
73239;SDS011;61452;40.054;4.110;2023-02-19T15:14:32;3.90;;;2.92;;
73239;SDS011;61452;40.054;4.110;2023-02-19T15:19:35;4.30;;;2.97;;
73239;SDS011;61452;40.054;4.110;2023-02-19T15:24:42;6.00;;;3.17;;
73239;SDS011;61452;40.054;4.110;2023-02-19T15:29:49;3.80;;;2.83;;
73239;SDS011;61452;40.054;4.110;2023-02-19T15:34:55;3.10;;;2.60;;
73239;SDS011;61452;40.054;4.110;2023-02-19T15:39:59;3.25;;;2.92;;
73239;SDS011;61452;40.054;4.110;2023-02-19T15:45:08;4.15;;;2.92;;
73239;SDS011;61452;40.054;4.110;2023-02-19T15:50:30;4.07;;;2.70;;
73239;SDS011;61452;40.054;4.110;2023-02-19T15:55:36;2.88;;;2.55;;
73239;SDS011;61452;40.054;4.110;2023-02-19T16:01:02;3.55;;;3.00;;
73239;SDS011;61452;40.054;4.110;2023-02-19T16:06:09;3.42;;;2.70;;
73239;SDS011;61452;40.054;4.110;2023-02-19T16:16:25;3.22;;;2.42;;
73239;SDS011;61452;40.054;4.110;2023-02-19T16:21:31;3.60;;;2.85;;
73239;SDS011;61452;40.054;4.110;2023-02-19T16:26:39;3.00;;;2.67;;
73239;SDS011;61452;40.054;4.110;2023-02-19T16:31:49;3.60;;;3.03;;
73239;SDS011;61452;40.054;4.110;2023-02-19T16:36:54;4.35;;;3.05;;
73239;SDS011;61452;40.054;4.110;2023-02-19T16:47:06;3.67;;;2.95;;
73239;SDS011;61452;40.054;4.110;2023-02-19T16:52:17;3.58;;;2.35;;
73239;SDS011;61452;40.054;4.110;2023-02-19T16:57:19;3.78;;;2.70;;
73239;SDS011;61452;40.054;4.110;2023-02-19T17:02:21;3.80;;;2.78;;
73239;SDS011;61452;40.054;4.110;2023-02-19T17:07:25;4.47;;;2.53;;
73239;SDS011;61452;40.054;4.110;2023-02-19T17:12:28;3.20;;;2.40;;
73239;SDS011;61452;40.054;4.110;2023-02-19T17:17:30;2.80;;;2.38;;
73239;SDS011;61452;40.054;4.110;2023-02-19T17:22:33;3.00;;;2.35;;
73239;SDS011;61452;40.054;4.110;2023-02-19T17:27:35;3.08;;;2.35;;
73239;SDS011;61452;40.054;4.110;2023-02-19T17:32:37;3.45;;;2.22;;
73239;SDS011;61452;40.054;4.110;2023-02-19T17:37:39;2.97;;;2.30;;
73239;SDS011;61452;40.054;4.110;2023-02-19T17:42:41;3.28;;;2.30;;
73239;SDS011;61452;40.054;4.110;2023-02-19T17:47:44;4.07;;;2.20;;
73239;SDS011;61452;40.054;4.110;2023-02-19T17:52:46;3.05;;;2.30;;
73239;SDS011;61452;40.054;4.110;2023-02-19T17:57:49;2.60;;;2.40;;
73239;SDS011;61452;40.054;4.110;2023-02-19T18:02:52;2.40;;;2.05;;
73239;SDS011;61452;40.054;4.110;2023-02-19T18:07:55;2.88;;;2.22;;
73239;SDS011;61452;40.054;4.110;2023-02-19T18:12:57;2.50;;;2.08;;
73239;SDS011;61452;40.054;4.110;2023-02-19T18:17:59;2.53;;;1.98;;
73239;SDS011;61452;40.054;4.110;2023-02-19T18:23:01;3.15;;;2.00;;
73239;SDS011;61452;40.054;4.110;2023-02-19T18:28:03;2.40;;;2.03;;
73239;SDS011;61452;40.054;4.110;2023-02-19T18:33:05;2.08;;;1.88;;
73239;SDS011;61452;40.054;4.110;2023-02-19T18:38:08;2.60;;;2.03;;
73239;SDS011;61452;40.054;4.110;2023-02-19T18:43:10;2.45;;;1.90;;
73239;SDS011;61452;40.054;4.110;2023-02-19T18:48:12;3.15;;;2.00;;
73239;SDS011;61452;40.054;4.110;2023-02-19T18:53:14;2.50;;;1.77;;
73239;SDS011;61452;40.054;4.110;2023-02-19T18:58:16;2.50;;;1.65;;
73239;SDS011;61452;40.054;4.110;2023-02-19T19:03:20;2.20;;;2.00;;
73239;SDS011;61452;40.054;4.110;2023-02-19T19:08:22;2.17;;;1.98;;
73239;SDS011;61452;40.054;4.110;2023-02-19T19:13:24;3.17;;;2.20;;
73239;SDS011;61452;40.054;4.110;2023-02-19T19:18:26;2.50;;;1.98;;
73239;SDS011;61452;40.054;4.110;2023-02-19T19:23:28;2.97;;;1.83;;
73239;SDS011;61452;40.054;4.110;2023-02-19T19:28:31;2.45;;;1.80;;
73239;SDS011;61452;40.054;4.110;2023-02-19T19:33:33;2.15;;;1.90;;
73239;SDS011;61452;40.054;4.110;2023-02-19T19:38:35;2.20;;;1.83;;
73239;SDS011;61452;40.054;4.110;2023-02-19T19:43:38;2.40;;;1.80;;
73239;SDS011;61452;40.054;4.110;2023-02-19T19:48:40;2.72;;;1.83;;
73239;SDS011;61452;40.054;4.110;2023-02-19T19:53:45;1.98;;;1.77;;
73239;SDS011;61452;40.054;4.110;2023-02-19T19:58:48;2.83;;;2.10;;
73239;SDS011;61452;40.054;4.110;2023-02-19T20:03:50;1.98;;;1.83;;
73239;SDS011;61452;40.054;4.110;2023-02-19T20:08:53;2.53;;;1.92;;
73239;SDS011;61452;40.054;4.110;2023-02-19T20:13:55;2.17;;;1.70;;
73239;SDS011;61452;40.054;4.110;2023-02-19T20:18:57;2.47;;;1.75;;
73239;SDS011;61452;40.054;4.110;2023-02-19T20:23:59;2.45;;;2.15;;
73239;SDS011;61452;40.054;4.110;2023-02-19T20:29:01;2.10;;;1.42;;
73239;SDS011;61452;40.054;4.110;2023-02-19T20:34:06;2.28;;;1.98;;
73239;SDS011;61452;40.054;4.110;2023-02-19T20:39:08;2.92;;;2.28;;
73239;SDS011;61452;40.054;4.110;2023-02-19T20:44:11;2.38;;;1.95;;
73239;SDS011;61452;40.054;4.110;2023-02-19T20:49:14;1.90;;;1.63;;
73239;SDS011;61452;40.054;4.110;2023-02-19T20:54:18;2.00;;;1.70;;
73239;SDS011;61452;40.054;4.110;2023-02-19T20:59:22;2.28;;;1.88;;
73239;SDS011;61452;40.054;4.110;2023-02-19T21:04:27;2.33;;;1.80;;
73239;SDS011;61452;40.054;4.110;2023-02-19T21:09:29;2.22;;;1.77;;
73239;SDS011;61452;40.054;4.110;2023-02-19T21:14:32;2.47;;;1.65;;
73239;SDS011;61452;40.054;4.110;2023-02-19T21:19:34;2.10;;;1.67;;
73239;SDS011;61452;40.054;4.110;2023-02-19T21:24:36;3.25;;;1.80;;
73239;SDS011;61452;40.054;4.110;2023-02-19T21:29:39;2.35;;;1.80;;
73239;SDS011;61452;40.054;4.110;2023-02-19T21:34:41;2.33;;;1.67;;
73239;SDS011;61452;40.054;4.110;2023-02-19T21:39:43;2.72;;;2.10;;
73239;SDS011;61452;40.054;4.110;2023-02-19T21:44:45;2.00;;;1.77;;
73239;SDS011;61452;40.054;4.110;2023-02-19T21:49:48;2.50;;;1.73;;
73239;SDS011;61452;40.054;4.110;2023-02-19T21:54:50;2.10;;;1.60;;
73239;SDS011;61452;40.054;4.110;2023-02-19T21:59:52;1.98;;;1.60;;
73239;SDS011;61452;40.054;4.110;2023-02-19T22:04:54;2.15;;;1.60;;
73239;SDS011;61452;40.054;4.110;2023-02-19T22:09:58;1.70;;;1.50;;
73239;SDS011;61452;40.054;4.110;2023-02-19T22:15:00;2.28;;;1.85;;
73239;SDS011;61452;40.054;4.110;2023-02-19T22:20:02;2.65;;;1.95;;
73239;SDS011;61452;40.054;4.110;2023-02-19T22:25:05;3.08;;;1.88;;
73239;SDS011;61452;40.054;4.110;2023-02-19T22:30:07;2.20;;;1.77;;
73239;SDS011;61452;40.054;4.110;2023-02-19T22:35:10;2.47;;;1.60;;
73239;SDS011;61452;40.054;4.110;2023-02-19T22:40:15;2.08;;;1.65;;
73239;SDS011;61452;40.054;4.110;2023-02-19T22:45:17;2.47;;;1.88;;
73239;SDS011;61452;40.054;4.110;2023-02-19T22:50:19;2.20;;;1.75;;
73239;SDS011;61452;40.054;4.110;2023-02-19T22:55:23;2.40;;;1.58;;
73239;SDS011;61452;40.054;4.110;2023-02-19T23:00:25;2.10;;;1.60;;
73239;SDS011;61452;40.054;4.110;2023-02-19T23:05:27;2.35;;;1.55;;
73239;SDS011;61452;40.054;4.110;2023-02-19T23:10:29;2.00;;;1.65;;
73239;SDS011;61452;40.054;4.110;2023-02-19T23:15:31;2.92;;;1.88;;
73239;SDS011;61452;40.054;4.110;2023-02-19T23:20:34;2.58;;;1.75;;
73239;SDS011;61452;40.054;4.110;2023-02-19T23:25:36;2.05;;;1.30;;
73239;SDS011;61452;40.054;4.110;2023-02-19T23:30:38;1.90;;;1.35;;
73239;SDS011;61452;40.054;4.110;2023-02-19T23:35:40;2.00;;;1.63;;
73239;SDS011;61452;40.054;4.110;2023-02-19T23:40:42;1.90;;;1.60;;
73239;SDS011;61452;40.054;4.110;2023-02-19T23:45:45;2.22;;;1.70;;
73239;SDS011;61452;40.054;4.110;2023-02-19T23:50:48;2.13;;;1.70;;
73239;SDS011;61452;40.054;4.110;2023-02-19T23:55:50;2.38;;;1.45;;
